createdAt,value
2019-04-28T00:00:11.461Z,12.71
2019-04-28T00:01:11.401Z,12.74
2019-04-28T00:03:03.883Z,12.70
2019-04-28T00:04:03.810Z,12.74
2019-04-28T00:05:56.577Z,12.71
2019-04-28T00:06:56.499Z,12.73
2019-04-28T00:08:49.266Z,12.77
2019-04-28T00:09:51.018Z,12.81
2019-04-28T00:11:41.974Z,12.79
2019-04-28T00:12:41.891Z,12.80
2019-04-28T00:14:34.767Z,12.87
2019-04-28T00:15:34.612Z,12.81
2019-04-28T00:17:27.379Z,12.77
2019-04-28T00:18:27.307Z,12.84
2019-04-28T00:20:21.326Z,12.81
2019-04-28T00:21:20.903Z,12.76
2019-04-28T00:23:12.783Z,12.62
2019-04-28T00:24:12.716Z,12.74
2019-04-28T00:26:05.479Z,12.63
2019-04-28T00:27:05.467Z,12.49
2019-04-28T00:28:58.167Z,12.56
2019-04-28T00:29:58.135Z,12.49
2019-04-28T00:31:51.363Z,12.43
2019-04-28T00:32:51.843Z,12.54
2019-04-28T00:34:43.610Z,12.52
2019-04-28T00:35:43.543Z,12.52
2019-04-28T00:37:36.355Z,12.43
2019-04-28T00:38:36.273Z,12.34
2019-04-28T00:40:29.033Z,12.51
2019-04-28T00:41:30.762Z,12.56
2019-04-28T00:43:21.826Z,12.52
2019-04-28T00:44:21.844Z,12.56
2019-04-28T00:46:14.407Z,12.49
2019-04-28T00:47:14.330Z,12.31
2019-04-28T00:49:07.106Z,12.33
2019-04-28T00:50:07.041Z,12.40
2019-04-28T00:52:00.686Z,12.34
2019-04-28T00:53:01.630Z,12.51
2019-04-28T00:54:52.865Z,12.55
2019-04-28T00:55:54.014Z,12.58
2019-04-28T00:57:45.239Z,12.62
2019-04-28T00:58:45.151Z,12.67
2019-04-28T01:00:37.967Z,12.51
2019-04-28T01:01:37.870Z,12.52
2019-04-28T01:03:32.131Z,12.63
2019-04-28T01:04:31.254Z,12.63
2019-04-28T01:06:23.344Z,12.51
2019-04-28T01:07:23.269Z,12.44
2019-04-28T01:09:16.023Z,12.46
2019-04-28T01:10:15.959Z,12.34
2019-04-28T01:12:08.723Z,12.36
2019-04-28T01:13:08.641Z,12.41
2019-04-28T01:15:04.599Z,12.49
2019-04-28T01:16:01.343Z,12.51
2019-04-28T01:17:54.113Z,12.37
2019-04-28T01:18:54.028Z,12.33
2019-04-28T01:20:46.841Z,12.37
2019-04-28T01:21:46.767Z,12.33
2019-04-28T01:23:40.276Z,12.41
2019-04-28T01:24:39.861Z,12.38
2019-04-28T01:26:32.253Z,12.46
2019-04-28T01:27:32.178Z,12.52
2019-04-28T01:29:24.933Z,12.66
2019-04-28T01:30:24.872Z,12.67
2019-04-28T01:32:17.649Z,12.58
2019-04-28T01:33:17.557Z,12.54
2019-04-28T01:35:10.319Z,12.62
2019-04-28T01:36:10.431Z,12.67
2019-04-28T01:38:03.027Z,12.62
2019-04-28T01:39:02.953Z,12.67
2019-04-28T01:40:55.701Z,12.74
2019-04-28T01:41:55.632Z,12.73
2019-04-28T01:43:48.447Z,12.63
2019-04-28T01:44:49.477Z,12.62
2019-04-28T01:46:41.144Z,12.61
2019-04-28T01:47:41.054Z,12.55
2019-04-28T01:49:33.819Z,12.43
2019-04-28T01:50:33.744Z,12.34
2019-04-28T01:52:26.585Z,12.37
2019-04-28T01:53:26.438Z,12.34
2019-04-28T01:55:59.571Z,12.44
2019-04-28T01:57:01.151Z,12.55
2019-04-28T01:58:51.876Z,12.37
2019-04-28T01:59:51.799Z,12.38
2019-04-28T02:01:44.588Z,12.38
2019-04-28T02:02:44.511Z,12.34
2019-04-28T02:04:37.285Z,12.41
2019-04-28T02:05:37.227Z,12.46
2019-04-28T02:07:30.713Z,12.38
2019-04-28T02:08:30.285Z,12.40
2019-04-28T02:10:22.675Z,12.51
2019-04-28T02:11:22.606Z,12.37
2019-04-28T02:13:15.376Z,12.43
2019-04-28T02:14:15.306Z,12.44
2019-04-28T02:16:09.719Z,12.36
2019-04-28T02:17:08.018Z,12.29
2019-04-28T02:19:00.784Z,12.18
2019-04-28T02:20:00.864Z,12.22
2019-04-28T02:21:53.463Z,12.33
2019-04-28T02:22:53.396Z,12.40
2019-04-28T02:24:46.161Z,12.30
2019-04-28T02:25:46.089Z,12.22
2019-04-28T02:27:40.094Z,12.23
2019-04-28T02:28:40.642Z,12.22
2019-04-28T02:30:44.682Z,12.07
2019-04-28T02:31:31.894Z,12.07
2019-04-28T02:33:24.298Z,12.08
2019-04-28T02:34:24.224Z,12.01
2019-04-28T02:36:16.169Z,12.01
2019-04-28T02:37:16.105Z,12.11
2019-04-28T02:39:10.685Z,12.15
2019-04-28T02:40:10.640Z,12.12
2019-04-28T02:42:01.939Z,12.07
2019-04-28T02:43:01.488Z,12.13
2019-04-28T02:44:54.277Z,12.15
2019-04-28T02:45:54.194Z,12.03
2019-04-28T02:47:46.973Z,12.03
2019-04-28T02:48:46.896Z,11.90
2019-04-28T02:50:41.092Z,11.84
2019-04-28T02:51:40.775Z,11.72
2019-04-28T02:53:33.673Z,11.60
2019-04-28T02:54:32.325Z,11.54
2019-04-28T02:56:25.083Z,11.51
2019-04-28T02:57:25.020Z,11.39
2019-04-28T02:59:17.804Z,11.35
2019-04-28T03:00:17.722Z,11.39
2019-04-28T03:02:10.812Z,11.41
2019-04-28T03:03:11.089Z,11.30
2019-04-28T03:05:03.316Z,11.19
2019-04-28T03:06:03.236Z,11.13
2019-04-28T03:07:56.300Z,11.31
2019-04-28T03:08:55.928Z,11.27
2019-04-28T03:10:50.925Z,11.33
2019-04-28T03:11:51.046Z,11.39
2019-04-28T03:13:41.456Z,11.38
2019-04-28T03:14:44.064Z,11.42
2019-04-28T03:16:34.199Z,11.39
2019-04-28T03:17:34.144Z,11.39
2019-04-28T03:19:26.953Z,11.38
2019-04-28T03:20:26.856Z,11.38
2019-04-28T03:22:20.482Z,11.36
2019-04-28T03:23:20.667Z,11.41
2019-04-28T03:25:12.369Z,11.46
2019-04-28T03:26:12.291Z,11.31
2019-04-28T03:28:05.054Z,11.39
2019-04-28T03:29:04.992Z,11.46
2019-04-28T03:30:57.769Z,11.45
2019-04-28T03:32:23.060Z,11.36
2019-04-28T03:33:55.134Z,11.36
2019-04-28T03:34:53.721Z,11.46
2019-04-28T03:36:43.147Z,11.48
2019-04-28T03:37:43.078Z,11.45
2019-04-28T03:39:35.868Z,11.54
2019-04-28T03:40:35.793Z,11.56
2019-04-28T03:42:31.135Z,11.45
2019-04-28T03:43:30.598Z,11.41
2019-04-28T03:45:21.293Z,11.54
2019-04-28T03:46:21.179Z,11.42
2019-04-28T03:48:13.954Z,11.39
2019-04-28T03:49:13.889Z,11.36
2019-04-28T03:51:06.664Z,11.21
2019-04-28T03:52:06.595Z,11.21
2019-04-28T03:54:00.644Z,11.30
2019-04-28T03:55:00.571Z,11.31
2019-04-28T03:56:53.664Z,11.26
2019-04-28T03:57:52.028Z,11.31
2019-04-28T03:59:44.814Z,11.35
2019-04-28T04:00:44.720Z,11.27
2019-04-28T04:02:37.509Z,11.35
2019-04-28T04:03:37.425Z,11.36
2019-04-28T04:05:30.821Z,11.36
2019-04-28T04:06:31.129Z,11.41
2019-04-28T04:08:22.905Z,11.51
2019-04-28T04:09:24.226Z,11.57
2019-04-28T04:11:15.602Z,11.62
2019-04-28T04:12:15.530Z,11.41
2019-04-28T04:14:08.279Z,11.38
2019-04-28T04:15:08.222Z,11.39
2019-04-28T04:17:01.007Z,11.36
2019-04-28T04:18:01.385Z,11.41
2019-04-28T04:19:53.703Z,11.39
2019-04-28T04:20:53.616Z,11.42
2019-04-28T04:22:46.384Z,11.41
2019-04-28T04:23:46.333Z,11.36
2019-04-28T04:25:41.700Z,11.39
2019-04-28T04:26:40.938Z,11.38
2019-04-28T04:28:31.837Z,11.38
2019-04-28T04:29:31.740Z,11.30
2019-04-28T04:31:24.503Z,11.36
2019-04-28T04:32:27.116Z,11.36
2019-04-28T04:34:17.245Z,11.38
2019-04-28T04:35:17.175Z,11.33
2019-04-28T04:37:12.514Z,11.38
2019-04-28T04:38:10.491Z,11.28
2019-04-28T04:40:02.677Z,11.30
2019-04-28T04:41:02.604Z,11.38
2019-04-28T04:42:55.360Z,11.36
2019-04-28T04:43:55.292Z,11.39
2019-04-28T04:45:50.243Z,11.38
2019-04-28T04:46:50.612Z,11.41
2019-04-28T04:48:40.896Z,11.44
2019-04-28T04:49:40.678Z,11.42
2019-04-28T04:51:33.483Z,11.41
2019-04-28T04:52:33.391Z,11.45
2019-04-28T04:54:26.135Z,11.46
2019-04-28T04:55:26.074Z,11.38
2019-04-28T04:57:20.761Z,11.20
2019-04-28T04:58:21.237Z,11.09
2019-04-28T05:00:11.681Z,11.02
2019-04-28T05:01:11.585Z,11.11
2019-04-28T05:03:04.340Z,11.12
2019-04-28T05:04:04.273Z,11.20
2019-04-28T05:05:57.056Z,11.19
2019-04-28T05:06:56.987Z,11.09
2019-04-28T05:08:49.913Z,11.33
2019-04-28T05:09:49.689Z,11.33
2019-04-28T05:11:42.462Z,11.19
2019-04-28T05:12:42.385Z,11.20
2019-04-28T05:14:35.365Z,11.30
2019-04-28T05:15:35.076Z,11.20
2019-04-28T05:17:27.855Z,11.03
2019-04-28T05:18:29.608Z,11.11
2019-04-28T05:20:20.518Z,11.12
2019-04-28T05:21:21.527Z,11.12
2019-04-28T05:23:13.240Z,10.99
2019-04-28T05:24:15.965Z,10.93
2019-04-28T05:26:07.995Z,10.84
2019-04-28T05:27:05.880Z,10.90
2019-04-28T05:28:59.540Z,10.95
2019-04-28T05:30:02.492Z,11.02
2019-04-28T05:31:54.958Z,11.21
2019-04-28T05:32:56.223Z,11.19
2019-04-28T05:34:46.690Z,11.13
2019-04-28T05:35:43.975Z,11.19
2019-04-28T05:37:36.758Z,11.01
2019-04-28T05:38:36.680Z,11.20
2019-04-28T05:40:29.626Z,11.17
2019-04-28T05:41:29.607Z,11.12
2019-04-28T05:43:22.161Z,11.19
2019-04-28T05:44:22.080Z,11.21
2019-04-28T05:46:14.866Z,11.17
2019-04-28T05:47:14.793Z,11.24
2019-04-28T05:49:07.571Z,11.21
2019-04-28T05:50:07.480Z,11.20
2019-04-28T05:52:00.696Z,11.16
2019-04-28T05:53:00.652Z,11.17
2019-04-28T05:54:52.966Z,11.28
2019-04-28T05:55:52.910Z,11.38
2019-04-28T05:57:45.717Z,11.38
2019-04-28T05:58:45.587Z,11.35
2019-04-28T06:00:39.725Z,11.39
2019-04-28T06:01:38.278Z,11.36
2019-04-28T06:03:31.053Z,11.35
2019-04-28T06:04:30.971Z,11.26
2019-04-28T06:06:23.819Z,11.13
2019-04-28T06:07:23.668Z,11.12
2019-04-28T06:09:16.421Z,11.08
2019-04-28T06:10:16.351Z,11.17
2019-04-28T06:12:10.309Z,11.09
2019-04-28T06:13:09.940Z,11.11
2019-04-28T06:15:01.845Z,11.01
2019-04-28T06:16:01.778Z,11.13
2019-04-28T06:17:54.551Z,11.17
2019-04-28T06:18:54.459Z,11.33
2019-04-28T06:20:47.233Z,11.35
2019-04-28T06:21:47.168Z,11.28
2019-04-28T06:23:39.942Z,11.23
2019-04-28T06:24:39.875Z,11.26
2019-04-28T06:26:32.627Z,11.28
2019-04-28T06:27:32.849Z,11.36
2019-04-28T06:29:25.404Z,11.42
2019-04-28T06:30:25.338Z,11.44
2019-04-28T06:32:18.094Z,11.53
2019-04-28T06:33:18.020Z,11.66
2019-04-28T06:35:10.794Z,11.67
2019-04-28T06:36:10.728Z,11.70
2019-04-28T06:38:03.508Z,11.72
2019-04-28T06:39:03.433Z,11.74
2019-04-28T06:40:56.192Z,11.70
2019-04-28T06:41:56.124Z,11.82
2019-04-28T06:43:48.891Z,11.94
2019-04-28T06:44:48.817Z,11.88
2019-04-28T06:46:41.587Z,11.90
2019-04-28T06:47:41.527Z,12.00
2019-04-28T06:49:34.299Z,12.15
2019-04-28T06:50:34.228Z,12.25
2019-04-28T06:52:27.060Z,12.08
2019-04-28T06:53:26.920Z,11.97
2019-04-28T06:55:19.705Z,11.97
2019-04-28T06:56:19.637Z,11.87
2019-04-28T06:58:12.402Z,11.85
2019-04-28T06:59:12.320Z,11.74
2019-04-28T07:01:05.146Z,11.81
2019-04-28T07:02:05.070Z,11.82
2019-04-28T07:03:57.881Z,11.75
2019-04-28T07:05:02.309Z,11.78
2019-04-28T07:06:50.627Z,11.78
2019-04-28T07:07:50.559Z,11.84
2019-04-28T07:09:43.386Z,11.94
2019-04-28T07:10:43.307Z,11.96
2019-04-28T07:12:36.074Z,11.94
2019-04-28T07:13:36.001Z,12.00
2019-04-28T07:15:28.759Z,12.04
2019-04-28T07:16:28.697Z,12.13
2019-04-28T07:18:21.506Z,12.18
2019-04-28T07:19:21.429Z,12.29
2019-04-28T07:21:14.180Z,12.29
2019-04-28T07:22:14.115Z,12.15
2019-04-28T07:24:06.949Z,12.19
2019-04-28T07:25:06.869Z,12.25
2019-04-28T07:26:59.622Z,12.25
2019-04-28T07:27:59.574Z,12.43
2019-04-28T07:29:52.322Z,12.54
2019-04-28T07:30:52.245Z,12.58
2019-04-28T07:32:44.997Z,12.43
2019-04-28T07:33:44.932Z,12.33
2019-04-28T07:35:37.743Z,12.37
2019-04-28T07:36:37.658Z,12.31
2019-04-28T07:38:30.448Z,12.26
2019-04-28T07:39:30.363Z,12.25
2019-04-28T07:41:23.115Z,12.26
2019-04-28T07:42:23.050Z,12.26
2019-04-28T07:44:15.825Z,12.29
2019-04-28T07:45:15.763Z,12.25
2019-04-28T07:47:08.585Z,12.12
2019-04-28T07:48:08.520Z,12.12
2019-04-28T07:50:01.289Z,12.07
2019-04-28T07:51:01.211Z,12.00
2019-04-28T07:52:54.003Z,11.90
2019-04-28T07:53:53.919Z,11.96
2019-04-28T07:55:46.690Z,11.82
2019-04-28T07:56:46.619Z,11.78
2019-04-28T07:58:39.519Z,11.60
2019-04-28T07:59:39.363Z,11.53
2019-04-28T08:01:32.147Z,11.59
2019-04-28T08:02:32.103Z,11.56
2019-04-28T08:04:24.931Z,11.57
2019-04-28T08:05:24.789Z,11.60
2019-04-28T08:07:17.520Z,11.42
2019-04-28T08:08:17.493Z,11.33
2019-04-28T08:10:10.241Z,11.46
2019-04-28T08:11:10.186Z,11.38
2019-04-28T08:13:03.027Z,11.45
2019-04-28T08:14:02.897Z,11.41
2019-04-28T08:15:55.729Z,11.39
2019-04-28T08:16:55.633Z,11.49
2019-04-28T08:18:48.409Z,11.48
2019-04-28T08:19:48.324Z,11.33
2019-04-28T08:21:41.081Z,11.39
2019-04-28T08:22:41.034Z,11.44
2019-04-28T08:24:33.819Z,11.59
2019-04-28T08:25:33.760Z,11.66
2019-04-28T08:27:26.521Z,11.82
2019-04-28T08:28:26.431Z,11.85
2019-04-28T08:30:19.242Z,11.93
2019-04-28T08:31:19.149Z,11.94
2019-04-28T08:33:11.897Z,11.90
2019-04-28T08:34:11.831Z,11.97
2019-04-28T08:36:04.695Z,12.08
2019-04-28T08:37:04.581Z,12.05
2019-04-28T08:38:57.440Z,12.29
2019-04-28T08:39:57.368Z,12.30
2019-04-28T08:41:50.228Z,12.15
2019-04-28T08:42:50.151Z,12.22
2019-04-28T08:44:42.959Z,12.31
2019-04-28T08:45:42.862Z,12.33
2019-04-28T08:47:35.668Z,12.36
2019-04-28T08:48:35.610Z,12.34
2019-04-28T08:50:28.492Z,12.38
2019-04-28T08:51:28.353Z,12.38
2019-04-28T08:53:21.203Z,12.52
2019-04-28T08:54:21.134Z,12.54
2019-04-28T08:56:13.937Z,12.67
2019-04-28T08:57:13.835Z,12.70
2019-04-28T08:59:06.619Z,12.91
2019-04-28T09:00:06.531Z,12.94
2019-04-28T09:01:59.477Z,13.07
2019-04-28T09:02:59.266Z,13.09
2019-04-28T09:04:52.057Z,13.28
2019-04-28T09:05:51.926Z,13.44
2019-04-28T09:07:44.742Z,13.69
2019-04-28T09:08:44.655Z,13.68
2019-04-28T09:10:37.470Z,13.62
2019-04-28T09:11:37.395Z,13.50
2019-04-28T09:13:30.173Z,13.29
2019-04-28T09:14:30.109Z,13.25
2019-04-28T09:16:22.972Z,13.10
2019-04-28T09:17:22.811Z,13.04
2019-04-28T09:19:15.582Z,13.06
2019-04-28T09:20:15.517Z,13.14
2019-04-28T09:22:08.395Z,13.31
2019-04-28T09:23:08.297Z,13.27
2019-04-28T09:25:01.130Z,13.71
2019-04-28T09:26:01.036Z,13.66
2019-04-28T09:27:53.833Z,14.01
2019-04-28T09:28:53.769Z,14.21
2019-04-28T09:30:46.538Z,14.02
2019-04-28T09:31:46.465Z,14.04
2019-04-28T09:33:39.231Z,14.26
2019-04-28T09:34:39.167Z,14.05
2019-04-28T09:36:31.995Z,13.81
2019-04-28T09:37:31.954Z,13.73
2019-04-28T09:39:24.696Z,13.47
2019-04-28T09:40:24.640Z,13.43
2019-04-28T09:42:17.423Z,13.35
2019-04-28T09:43:17.351Z,13.44
2019-04-28T09:45:10.147Z,13.27
2019-04-28T09:46:10.047Z,13.48
2019-04-28T09:48:02.842Z,13.39
2019-04-28T09:49:02.777Z,13.50
2019-04-28T09:50:55.556Z,13.57
2019-04-28T09:51:55.519Z,13.51
2019-04-28T09:53:48.263Z,13.72
2019-04-28T09:54:48.195Z,13.79
2019-04-28T09:56:40.969Z,14.04
2019-04-28T09:57:40.900Z,14.11
2019-04-28T09:59:33.653Z,14.27
2019-04-28T10:00:33.588Z,14.31
2019-04-28T10:02:26.367Z,14.44
2019-04-28T10:03:26.297Z,14.44
2019-04-28T10:05:19.045Z,14.78
2019-04-28T10:06:18.986Z,14.97
2019-04-28T10:08:11.770Z,14.87
2019-04-28T10:09:11.692Z,14.83
2019-04-28T10:11:04.464Z,14.63
2019-04-28T10:12:04.443Z,14.56
2019-04-28T10:13:57.167Z,14.59
2019-04-28T10:14:57.093Z,14.30
2019-04-28T10:16:49.925Z,14.30
2019-04-28T10:17:49.823Z,14.27
2019-04-28T10:19:42.612Z,14.42
2019-04-28T10:20:42.550Z,14.39
2019-04-28T10:22:35.315Z,14.12
2019-04-28T10:23:35.243Z,14.05
2019-04-28T10:25:28.004Z,13.83
2019-04-28T10:26:27.934Z,13.62
2019-04-28T10:28:20.708Z,13.51
2019-04-28T10:29:20.632Z,13.41
2019-04-28T10:31:13.575Z,13.38
2019-04-28T10:32:13.322Z,13.35
2019-04-28T10:34:06.100Z,13.43
2019-04-28T10:35:06.034Z,13.50
2019-04-28T10:36:58.818Z,13.73
2019-04-28T10:37:58.727Z,13.84
2019-04-28T10:39:51.522Z,14.11
2019-04-28T10:40:51.432Z,14.17
2019-04-28T10:42:44.219Z,14.04
2019-04-28T10:43:44.139Z,13.96
2019-04-28T10:45:36.921Z,13.75
2019-04-28T10:46:36.833Z,13.63
2019-04-28T10:48:29.623Z,13.68
2019-04-28T10:49:29.536Z,13.79
2019-04-28T10:51:22.309Z,13.98
2019-04-28T10:52:22.248Z,14.11
2019-04-28T10:54:15.042Z,14.23
2019-04-28T10:55:14.957Z,14.46
2019-04-28T10:57:07.732Z,14.80
2019-04-28T10:58:07.667Z,14.95
2019-04-28T11:00:01.282Z,15.01
2019-04-28T11:01:01.222Z,15.05
2019-04-28T11:02:54.022Z,14.82
2019-04-28T11:03:53.943Z,14.78
2019-04-28T11:05:46.702Z,14.60
2019-04-28T11:06:46.648Z,14.57
2019-04-28T11:08:39.470Z,14.78
2019-04-28T11:09:39.344Z,14.97
2019-04-28T11:11:32.114Z,15.01
2019-04-28T11:12:32.050Z,15.40
2019-04-28T11:14:24.827Z,15.84
2019-04-28T11:15:24.745Z,16.10
2019-04-28T11:17:17.573Z,15.80
2019-04-28T11:18:17.499Z,15.52
2019-04-28T11:20:10.268Z,15.59
2019-04-28T11:21:10.219Z,15.60
2019-04-28T11:23:03.001Z,15.85
2019-04-28T11:24:02.929Z,16.07
2019-04-28T11:25:55.728Z,16.04
2019-04-28T11:26:55.659Z,16.04
2019-04-28T11:28:48.427Z,16.10
2019-04-28T11:29:48.353Z,16.01
2019-04-28T11:31:41.115Z,16.22
2019-04-28T11:32:41.050Z,16.14
2019-04-28T11:34:33.839Z,16.06
2019-04-28T11:35:33.753Z,15.95
2019-04-28T11:37:26.535Z,15.88
2019-04-28T11:38:26.443Z,15.77
2019-04-28T11:40:19.217Z,15.64
2019-04-28T11:41:19.133Z,15.60
2019-04-28T11:43:11.905Z,15.59
2019-04-28T11:44:11.831Z,15.70
2019-04-28T11:46:04.601Z,15.59
2019-04-28T11:47:04.541Z,15.56
2019-04-28T11:48:57.395Z,15.44
2019-04-28T11:49:57.244Z,15.52
2019-04-28T11:51:50.049Z,15.46
2019-04-28T11:52:49.982Z,15.37
2019-04-28T11:54:42.751Z,15.31
2019-04-28T11:55:42.672Z,15.23
2019-04-28T11:57:35.462Z,15.01
2019-04-28T11:58:35.402Z,14.85
2019-04-28T12:00:28.141Z,14.85
2019-04-28T12:01:28.074Z,14.95
2019-04-28T12:03:20.854Z,15.05
2019-04-28T12:04:20.781Z,15.03
2019-04-28T12:06:13.536Z,15.20
2019-04-28T12:07:13.480Z,15.18
2019-04-28T12:09:06.260Z,15.18
2019-04-28T12:10:06.629Z,14.98
2019-04-28T12:11:58.941Z,14.82
2019-04-28T12:12:58.878Z,14.75
2019-04-28T12:14:51.657Z,14.72
2019-04-28T12:15:51.585Z,14.74
2019-04-28T12:17:44.542Z,14.86
2019-04-28T12:18:44.282Z,14.90
2019-04-28T12:20:37.055Z,14.85
2019-04-28T12:21:36.979Z,14.85
2019-04-28T12:23:29.761Z,14.79
2019-04-28T12:24:29.676Z,14.74
2019-04-28T12:26:22.443Z,14.61
2019-04-28T12:27:22.379Z,14.72
2019-04-28T12:29:15.151Z,14.78
2019-04-28T12:30:15.077Z,14.69
2019-04-28T12:32:07.825Z,14.49
2019-04-28T12:33:07.814Z,14.57
2019-04-28T12:35:00.539Z,14.60
2019-04-28T12:36:00.490Z,14.67
2019-04-28T12:37:53.233Z,14.69
2019-04-28T12:38:53.169Z,14.63
2019-04-28T12:40:45.946Z,14.87
2019-04-28T12:41:45.867Z,14.95
2019-04-28T12:43:38.625Z,15.01
2019-04-28T12:44:38.571Z,14.97
2019-04-28T12:46:31.369Z,15.03
2019-04-28T12:47:31.296Z,15.19
2019-04-28T12:49:24.141Z,15.37
2019-04-28T12:50:24.053Z,15.52
2019-04-28T12:52:16.833Z,15.43
2019-04-28T12:53:16.766Z,15.35
2019-04-28T12:55:09.536Z,15.37
2019-04-28T12:56:09.462Z,15.37
2019-04-28T12:58:02.248Z,15.35
2019-04-28T12:59:02.230Z,15.16
2019-04-28T13:00:54.974Z,15.15
2019-04-28T13:01:54.907Z,15.15
2019-04-28T13:03:47.678Z,14.87
2019-04-28T13:04:47.611Z,14.94
2019-04-28T13:06:40.379Z,14.94
2019-04-28T13:07:40.299Z,15.03
2019-04-28T13:09:33.106Z,14.91
2019-04-28T13:10:33.024Z,15.01
2019-04-28T13:12:25.791Z,15.04
2019-04-28T13:13:25.717Z,15.01
2019-04-28T13:15:18.557Z,15.07
2019-04-28T13:16:18.412Z,14.94
2019-04-28T13:18:11.180Z,14.85
2019-04-28T13:19:11.117Z,14.78
2019-04-28T13:21:03.892Z,14.98
2019-04-28T13:22:05.530Z,15.05
2019-04-28T13:23:56.643Z,15.01
2019-04-28T13:24:56.563Z,15.03
2019-04-28T13:26:52.171Z,15.16
2019-04-28T13:27:49.315Z,15.19
2019-04-28T13:29:42.078Z,15.44
2019-04-28T13:30:42.015Z,15.52
2019-04-28T13:32:34.907Z,15.44
2019-04-28T13:33:34.806Z,15.58
2019-04-28T13:35:27.631Z,15.62
2019-04-28T13:36:27.559Z,15.55
2019-04-28T13:38:20.375Z,15.44
2019-04-28T13:39:20.341Z,15.40
2019-04-28T13:41:13.103Z,15.58
2019-04-28T13:42:13.002Z,15.64
2019-04-28T13:44:05.774Z,15.58
2019-04-28T13:45:05.709Z,15.59
2019-04-28T13:46:58.525Z,15.76
2019-04-28T13:47:58.457Z,15.88
2019-04-28T13:49:51.249Z,16.14
2019-04-28T13:50:51.159Z,16.17
2019-04-28T13:52:43.934Z,16.27
2019-04-28T13:53:43.915Z,16.14
2019-04-28T13:55:36.633Z,16.07
2019-04-28T13:56:36.551Z,15.88
2019-04-28T13:58:29.307Z,15.77
2019-04-28T13:59:29.296Z,15.62
2019-04-28T14:01:22.031Z,15.56
2019-04-28T14:02:21.958Z,15.49
2019-04-28T14:04:14.715Z,15.52
2019-04-28T14:05:14.708Z,15.41
2019-04-28T14:07:07.475Z,15.22
2019-04-28T14:08:07.344Z,15.15
2019-04-28T14:10:00.141Z,15.01
2019-04-28T14:11:00.073Z,14.98
2019-04-28T14:12:52.886Z,15.12
2019-04-28T14:13:52.802Z,15.19
2019-04-28T14:15:48.382Z,15.40
2019-04-28T14:16:45.543Z,15.55
2019-04-28T14:18:38.326Z,15.62
2019-04-28T14:19:38.200Z,15.91
2019-04-28T14:21:31.014Z,16.01
2019-04-28T14:22:31.145Z,16.06
2019-04-28T14:24:23.740Z,16.07
2019-04-28T14:25:23.615Z,16.01
2019-04-28T14:27:16.423Z,16.06
2019-04-28T14:28:16.330Z,15.95
2019-04-28T14:30:09.104Z,15.93
2019-04-28T14:31:09.027Z,15.89
2019-04-28T14:33:01.803Z,15.88
2019-04-28T14:34:01.910Z,15.85
2019-04-28T14:35:54.616Z,15.91
2019-04-28T14:36:54.459Z,15.91
2019-04-28T14:38:47.379Z,15.70
2019-04-28T14:39:47.283Z,15.56
2019-04-28T14:41:40.435Z,15.49
2019-04-28T14:42:40.204Z,15.38
2019-04-28T14:44:32.973Z,15.16
2019-04-28T14:45:32.856Z,15.16
2019-04-28T14:47:25.726Z,15.05
2019-04-28T14:48:25.682Z,15.15
2019-04-28T14:50:18.455Z,15.44
2019-04-28T14:51:18.442Z,15.58
2019-04-28T14:53:11.156Z,15.89
2019-04-28T14:54:11.109Z,16.04
2019-04-28T14:56:07.088Z,16.34
2019-04-28T14:57:03.983Z,16.36
2019-04-28T14:58:57.124Z,16.62
2019-04-28T14:59:58.235Z,16.66
2019-04-28T15:01:49.894Z,16.55
2019-04-28T15:02:49.781Z,16.52
2019-04-28T15:04:42.724Z,16.47
2019-04-28T15:05:42.722Z,16.33
2019-04-28T15:07:35.530Z,16.32
2019-04-28T15:08:35.598Z,16.36
2019-04-28T15:10:28.408Z,16.17
2019-04-28T15:11:28.459Z,16.18
2019-04-28T15:13:21.133Z,15.98
2019-04-28T15:14:21.117Z,15.88
2019-04-28T15:16:13.843Z,15.81
2019-04-28T15:17:13.791Z,15.67
2019-04-28T15:19:06.590Z,15.20
2019-04-28T15:20:06.596Z,15.19
2019-04-28T15:21:59.279Z,15.28
2019-04-28T15:22:59.259Z,15.25
2019-04-28T15:24:52.071Z,15.31
2019-04-28T15:25:52.151Z,15.31
2019-04-28T15:27:44.759Z,15.51
2019-04-28T15:28:44.761Z,15.56
2019-04-28T15:30:37.503Z,15.84
2019-04-28T15:31:37.428Z,16.03
2019-04-28T15:33:30.229Z,16.25
2019-04-28T15:34:30.153Z,16.18
2019-04-28T15:36:22.946Z,16.22
2019-04-28T15:37:22.867Z,16.10
2019-04-28T15:39:15.727Z,15.86
2019-04-28T15:40:15.652Z,15.88
2019-04-28T15:42:07.583Z,15.77
2019-04-28T15:43:07.542Z,15.76
2019-04-28T15:45:00.400Z,15.89
2019-04-28T15:46:00.360Z,15.91
2019-04-28T15:47:54.712Z,15.91
2019-04-28T15:48:54.746Z,15.95
2019-04-28T15:50:46.425Z,15.89
2019-04-28T15:51:46.487Z,15.84
2019-04-28T15:53:39.112Z,15.85
2019-04-28T15:54:39.046Z,15.74
2019-04-28T15:56:32.474Z,15.86
2019-04-28T15:57:32.383Z,15.84
2019-04-28T15:59:25.505Z,15.88
2019-04-28T16:00:25.277Z,15.92
2019-04-28T16:02:17.048Z,15.99
2019-04-28T16:03:17.042Z,15.98
2019-04-28T16:05:09.964Z,15.96
2019-04-28T16:06:09.889Z,16.01
2019-04-28T16:08:01.657Z,15.88
2019-04-28T16:09:01.590Z,15.89
2019-04-28T16:10:53.488Z,15.86
2019-04-28T16:11:53.376Z,15.85
2019-04-28T16:13:45.193Z,15.86
2019-04-28T16:14:45.171Z,15.88
2019-04-28T16:16:36.907Z,15.85
2019-04-28T16:17:36.852Z,15.85
2019-04-28T16:19:29.649Z,15.74
2019-04-28T16:20:29.872Z,15.78
2019-04-28T16:22:21.598Z,15.80
2019-04-28T16:23:21.295Z,15.89
2019-04-28T16:25:14.066Z,15.86
2019-04-28T16:26:14.038Z,15.80
2019-04-28T16:28:05.752Z,15.62
2019-04-28T16:29:05.680Z,15.68
2019-04-28T16:30:57.703Z,15.58
2019-04-28T16:31:57.630Z,15.51
2019-04-28T16:33:49.747Z,15.56
2019-04-28T16:34:49.378Z,15.46
2019-04-28T16:36:42.205Z,15.40
2019-04-28T16:37:42.160Z,15.43
2019-04-28T16:39:33.972Z,15.35
2019-04-28T16:40:33.830Z,15.38
2019-04-28T16:42:26.706Z,15.49
2019-04-28T16:43:26.623Z,15.40
2019-04-28T16:45:18.787Z,15.43
2019-04-28T16:46:18.372Z,15.38
2019-04-28T16:48:10.098Z,15.46
2019-04-28T16:49:10.037Z,15.43
2019-04-28T16:51:02.217Z,15.41
2019-04-28T16:52:02.092Z,15.31
2019-04-28T16:53:54.009Z,15.25
2019-04-28T16:54:53.924Z,15.28
2019-04-28T16:56:45.777Z,15.12
2019-04-28T16:57:45.742Z,14.90
2019-04-28T16:59:37.787Z,14.39
2019-04-28T17:00:37.718Z,14.35
2019-04-28T17:02:30.625Z,14.08
2019-04-28T17:03:30.549Z,14.12
2019-04-28T17:05:22.420Z,13.99
2019-04-28T17:06:22.342Z,14.02
2019-04-28T17:08:14.219Z,13.98
2019-04-28T17:09:14.144Z,13.83
2019-04-28T17:11:07.071Z,13.75
2019-04-28T17:12:06.966Z,13.69
2019-04-28T17:13:58.958Z,13.71
2019-04-28T17:14:58.796Z,13.68
2019-04-28T17:16:51.781Z,13.62
2019-04-28T17:17:51.669Z,13.71
2019-04-28T17:19:44.521Z,13.66
2019-04-28T17:20:44.418Z,13.63
2019-04-28T17:22:36.279Z,13.73
2019-04-28T17:23:36.150Z,13.68
2019-04-28T17:25:28.518Z,13.61
2019-04-28T17:26:28.296Z,13.71
2019-04-28T17:28:21.620Z,13.62
2019-04-28T17:29:20.490Z,13.71
2019-04-28T17:31:13.570Z,13.68
2019-04-28T17:32:13.247Z,13.71
2019-04-28T17:34:05.011Z,13.65
2019-04-28T17:35:04.990Z,13.57
2019-04-28T17:36:57.097Z,13.65
2019-04-28T17:38:06.375Z,13.65
2019-04-28T17:39:50.030Z,13.61
2019-04-28T17:40:49.967Z,13.57
2019-04-28T17:42:43.414Z,13.43
2019-04-28T17:43:43.213Z,13.54
2019-04-28T17:45:35.487Z,13.31
2019-04-28T17:46:35.427Z,13.41
2019-04-28T17:48:28.285Z,13.39
2019-04-28T17:49:28.192Z,13.32
2019-04-28T17:51:20.964Z,13.24
2019-04-28T17:52:20.889Z,13.31
2019-04-28T17:54:12.667Z,13.25
2019-04-28T17:55:12.796Z,13.22
2019-04-28T17:57:05.539Z,13.35
2019-04-28T17:58:05.471Z,13.24
2019-04-28T17:59:57.501Z,13.22
2019-04-28T18:00:57.411Z,13.21
2019-04-28T18:02:50.298Z,13.14
2019-04-28T18:03:50.246Z,13.10
2019-04-28T18:05:43.259Z,13.07
2019-04-28T18:06:43.077Z,13.07
2019-04-28T18:08:36.055Z,12.96
2019-04-28T18:09:35.970Z,12.95
2019-04-28T18:11:28.091Z,12.88
2019-04-28T18:12:27.917Z,12.95
2019-04-28T18:14:20.020Z,12.87
2019-04-28T18:15:19.876Z,12.87
2019-04-28T18:17:13.105Z,12.76
2019-04-28T18:18:12.877Z,12.79
2019-04-28T18:20:06.270Z,12.70
2019-04-28T18:21:06.097Z,12.62
2019-04-28T18:22:58.075Z,12.62
2019-04-28T18:23:57.795Z,12.70
2019-04-28T18:25:51.102Z,12.58
2019-04-28T18:26:50.890Z,12.62
2019-04-28T18:28:43.635Z,12.54
2019-04-28T18:29:43.358Z,12.56
2019-04-28T18:31:35.596Z,12.61